Appleby, South Dakota
Current Conditions -  °F | °C
As of 1:53 AM on Wednesday 22 Oct 2014 (Local Time) from KATY Reporting Station
Clear Clear  
Wind Chill: 54°   Ceiling: Unl
Heat Index: 54°   Visibility: 10mi
Dew Point: 42°   Wind: 16mph
Humidity: 64%   Direction: 160°SSE
Pressure: 29.94"   Gusts: 28mph
Location:  44.9156°N, 97.1699°W
Report Text: KATY 220653Z AUTO 16014G24KT 10SM CLR 12/06 A2994 RMK AO2 PK WND 16026/0628 SLP136 T01220056
Loading
Personal Weather Stations






























Interactive Weather Map New forecast layout! Learn more

10-Day Weather Forecast

Advertisements
Track Severe Weather on mobile